Time;durP1;ratioP1;P1;durP2;ratioP2;P2;SDS_P1;SDS_P2;PMS_P1;PMS_P2;Temp;Humidity;BMP_temperature;BMP_pressure;BME280_temperature;BME280_humidity;BME280_pressure;Samples;Min_cycle;Max_cycle;Signal;HPM_P1;HPM_P2
2022/11/09 00:01:37;;;;;;;67.87;10.20;;;12.50;1.00;;;;;;5073748;28;20454;-75
2022/11/09 00:04:05;;;;;;;66.07;10.43;;;12.60;1.00;;;;;;5073592;28;20436;-75
2022/11/09 00:06:32;;;;;;;66.27;10.43;;;12.60;1.00;;;;;;5073999;28;20448;-75
2022/11/09 00:09:01;;;;;;;68.07;10.03;;;12.70;1.00;;;;;;5072731;28;20479;-75
2022/11/09 00:11:29;;;;;;;69.27;11.00;;;12.80;1.00;;;;;;5073913;28;20439;-75
2022/11/09 00:13:56;;;;;;;64.47;9.90;;;12.80;1.00;;;;;;5073188;28;20486;-75
2022/11/09 00:16:22;;;;;;;67.50;10.33;;;12.80;1.00;;;;;;5073329;28;20526;-75
2022/11/09 00:18:50;;;;;;;67.50;10.70;;;12.80;1.00;;;;;;5072297;28;20479;-75
2022/11/09 00:21:19;;;;;;;64.97;10.10;;;12.80;1.00;;;;;;5073131;28;20454;-74
2022/11/09 00:23:47;;;;;;;65.27;9.80;;;12.90;1.00;;;;;;5073474;28;20549;-75
2022/11/09 00:26:15;;;;;;;71.27;10.00;;;12.70;1.00;;;;;;5072859;28;20986;-75
2022/11/09 00:28:44;;;;;;;67.87;10.63;;;12.70;1.00;;;;;;5072806;28;20482;-75
2022/11/09 00:31:12;;;;;;;66.10;10.70;;;12.70;1.00;;;;;;5073531;28;21008;-75
2022/11/09 00:33:39;;;;;;;64.50;8.83;;;12.80;1.00;;;;;;5073424;28;20469;-75
2022/11/09 00:36:08;;;;;;;67.93;10.33;;;12.70;1.00;;;;;;5073087;28;20454;-75
2022/11/09 00:38:36;;;;;;;65.20;10.03;;;12.70;1.00;;;;;;5072164;28;20481;-75
2022/11/09 00:41:03;;;;;;;69.63;10.40;;;12.70;1.00;;;;;;5072881;28;20484;-75
2022/11/09 00:43:30;;;;;;;69.70;10.80;;;12.70;1.00;;;;;;5073385;28;20450;-75
2022/11/09 00:45:58;;;;;;;65.77;10.30;;;12.70;1.00;;;;;;5073332;28;20883;-75
2022/11/09 00:48:25;;;;;;;69.43;12.07;;;12.80;1.00;;;;;;5073075;28;20463;-75
2022/11/09 00:50:53;;;;;;;70.13;11.00;;;12.80;1.00;;;;;;5073087;28;20450;-74
2022/11/09 00:53:20;;;;;;;65.70;9.90;;;12.80;1.00;;;;;;5073105;28;20443;-75
2022/11/09 00:55:54;;;;;;;67.70;9.70;;;12.80;1.00;;;;;;5073423;28;20542;-75
2022/11/09 00:58:21;;;;;;;70.97;10.73;;;12.70;1.00;;;;;;5073184;28;20497;-75
2022/11/09 01:00:48;;;;;;;64.30;9.63;;;12.60;1.00;;;;;;5074340;28;20691;-75
2022/11/09 01:03:16;;;;;;;64.67;9.23;;;12.60;1.00;;;;;;5076724;28;20447;-75
2022/11/09 01:05:43;;;;;;;65.43;9.47;;;12.30;1.00;;;;;;5076808;28;20473;-75
2022/11/09 01:08:10;;;;;;;65.90;9.40;;;12.40;1.00;;;;;;5076338;28;20479;-75
2022/11/09 01:10:41;;;;;;;67.93;10.60;;;12.50;1.00;;;;;;5076213;28;20451;-75
2022/11/09 01:13:08;;;;;;;66.03;8.97;;;12.50;1.00;;;;;;5076070;28;20454;-74
2022/11/09 01:15:35;;;;;;;69.13;10.43;;;12.20;1.00;;;;;;5076192;28;20443;-74
2022/11/09 01:18:01;;;;;;;66.53;10.80;;;12.30;1.00;;;;;;5075692;28;20497;-75
2022/11/09 01:20:29;;;;;;;67.30;10.20;;;12.20;1.00;;;;;;5074866;28;20485;-75
2022/11/09 01:22:56;;;;;;;67.53;10.27;;;12.30;1.00;;;;;;5076023;28;20462;-75
2022/11/09 01:25:23;;;;;;;67.17;10.80;;;12.00;1.00;;;;;;5076176;28;20462;-75
2022/11/09 01:27:50;;;;;;;64.70;9.20;;;12.10;1.00;;;;;;5075515;28;20558;-75
2022/11/09 01:30:17;;;;;;;67.70;10.30;;;12.20;1.00;;;;;;5074752;28;20454;-75
2022/11/09 01:32:43;;;;;;;67.80;10.80;;;12.00;1.00;;;;;;5076342;28;20465;-75
2022/11/09 01:35:10;;;;;;;67.90;10.10;;;11.80;1.00;;;;;;5076675;28;20542;-75
2022/11/09 01:37:38;;;;;;;65.03;8.87;;;11.50;1.00;;;;;;5075793;28;21054;-75
2022/11/09 01:40:06;;;;;;;65.00;9.73;;;11.70;1.00;;;;;;5075153;28;20600;-75
2022/11/09 01:42:37;;;;;;;65.60;9.07;;;12.10;1.00;;;;;;5075691;28;20785;-75
2022/11/09 01:45:26;;;;;;;64.57;8.97;;;12.30;1.00;;;;;;5075674;28;20967;-74
2022/11/09 01:47:59;;;;;;;64.27;7.77;;;12.50;1.00;;;;;;5075435;28;20471;-75
2022/11/09 01:50:36;;;;;;;63.20;8.50;;;12.40;1.00;;;;;;5074896;28;20458;-74
2022/11/09 01:53:09;;;;;;;65.10;8.73;;;12.60;1.00;;;;;;5075949;28;21002;-75
2022/11/09 01:55:36;;;;;;;66.50;9.43;;;12.70;1.00;;;;;;5076023;28;20472;-75
2022/11/09 01:58:07;;;;;;;65.97;8.20;;;12.50;1.00;;;;;;5075265;28;20474;-75
2022/11/09 02:00:36;;;;;;;64.17;8.40;;;12.50;1.00;;;;;;5074728;28;20487;-75
2022/11/09 02:03:06;;;;;;;63.90;8.13;;;12.60;1.00;;;;;;5075896;28;20542;-74
2022/11/09 02:05:36;;;;;;;64.87;8.60;;;12.60;1.00;;;;;;5075373;28;20478;-75
2022/11/09 02:08:06;;;;;;;67.00;9.03;;;12.60;1.00;;;;;;5075448;28;20494;-75
2022/11/09 02:10:38;;;;;;;64.17;8.20;;;12.50;1.00;;;;;;5074795;28;20470;-75
2022/11/09 02:13:07;;;;;;;64.00;8.40;;;12.40;1.00;;;;;;5075355;28;20523;-75
2022/11/09 02:15:34;;;;;;;65.40;8.80;;;12.50;1.00;;;;;;5075384;28;20538;-75
2022/11/09 02:20:47;;;;;;;62.17;7.63;;;12.60;1.00;;;;;;5050987;28;20476;-75
2022/11/09 02:23:14;;;;;;;65.93;7.97;;;12.80;1.00;;;;;;5052932;28;20979;-75
2022/11/09 02:25:44;;;;;;;65.23;8.20;;;12.90;1.00;;;;;;5052847;28;20456;-75
2022/11/09 02:28:11;;;;;;;67.00;8.87;;;13.00;1.00;;;;;;5052469;28;20472;-75
2022/11/09 02:30:38;;;;;;;64.70;8.07;;;13.10;1.00;;;;;;5052160;28;20451;-75
2022/11/09 02:33:05;;;;;;;64.77;8.23;;;13.10;1.00;;;;;;5052562;28;20461;-75
2022/11/09 02:35:32;;;;;;;71.30;9.20;;;13.10;1.00;;;;;;5052640;28;20546;-75
2022/11/09 02:38:00;;;;;;;63.50;7.63;;;12.80;1.00;;;;;;5052544;28;20464;-74
2022/11/09 02:40:31;;;;;;;65.37;7.73;;;12.80;1.00;;;;;;5051757;28;20906;-75
2022/11/09 02:42:59;;;;;;;65.20;8.33;;;12.80;1.00;;;;;;5052912;28;20584;-75
2022/11/09 02:45:26;;;;;;;62.70;7.57;;;12.90;1.00;;;;;;5052227;28;20845;-75
2022/11/09 02:47:53;;;;;;;67.37;8.33;;;12.80;1.00;;;;;;5052411;28;20559;-75
2022/11/09 02:50:20;;;;;;;65.17;8.93;;;12.80;1.00;;;;;;5051836;28;20521;-75
2022/11/09 02:52:46;;;;;;;63.73;8.40;;;12.90;1.00;;;;;;5072388;28;20454;-75
2022/11/09 02:55:15;;;;;;;63.10;8.20;;;12.80;1.00;;;;;;5074486;28;20451;-74
2022/11/09 02:57:42;;;;;;;64.20;8.30;;;13.00;1.00;;;;;;5074411;28;20984;-75
2022/11/09 03:00:10;;;;;;;66.00;7.40;;;13.10;1.00;;;;;;5073453;28;20482;-75
2022/11/09 03:02:37;;;;;;;63.50;8.40;;;13.10;1.00;;;;;;5074668;28;20455;-75
2022/11/09 03:05:04;;;;;;;65.20;7.83;;;13.30;1.00;;;;;;5074643;28;20448;-75
2022/11/09 03:07:31;;;;;;;64.80;8.03;;;13.40;1.00;;;;;;5074309;28;20472;-75
2022/11/09 03:09:58;;;;;;;64.40;8.33;;;13.40;1.00;;;;;;5073572;28;20451;-75
2022/11/09 03:12:29;;;;;;;63.70;8.43;;;13.50;1.00;;;;;;5074212;28;20469;-75
2022/11/09 03:14:56;;;;;;;66.77;8.67;;;13.50;1.00;;;;;;5074686;28;20447;-74
2022/11/09 03:17:23;;;;;;;64.90;8.97;;;13.50;1.00;;;;;;5074330;28;20472;-75
2022/11/09 03:19:50;;;;;;;65.80;8.60;;;13.50;1.00;;;;;;5072738;28;20795;-75
2022/11/09 03:22:17;;;;;;;63.23;9.03;;;13.60;1.00;;;;;;5073800;28;20475;-75
2022/11/09 03:24:44;;;;;;;63.20;8.00;;;13.60;1.00;;;;;;5073648;28;20457;-75
2022/11/09 03:27:11;;;;;;;63.90;8.60;;;13.60;1.00;;;;;;5073374;28;20472;-75
2022/11/09 03:29:39;;;;;;;64.60;8.80;;;13.60;1.00;;;;;;5072853;28;20451;-75
2022/11/09 03:32:06;;;;;;;64.87;8.00;;;13.50;1.00;;;;;;5072898;28;20450;-75
2022/11/09 03:34:33;;;;;;;64.60;8.47;;;13.40;1.00;;;;;;5072376;28;20458;-74
2022/11/09 03:37:00;;;;;;;65.47;9.50;;;13.40;1.00;;;;;;5072141;28;20451;-74
2022/11/09 03:39:27;;;;;;;63.87;8.07;;;13.40;1.00;;;;;;5071454;28;20549;-74
2022/11/09 03:41:54;;;;;;;62.80;8.27;;;13.40;1.00;;;;;;5072009;28;20495;-74
2022/11/09 03:44:20;;;;;;;63.40;8.43;;;13.50;1.00;;;;;;5072189;28;20981;-74
2022/11/09 03:46:49;;;;;;;63.40;7.97;;;13.50;1.00;;;;;;5072158;28;20451;-74
2022/11/09 03:49:15;;;;;;;64.73;8.03;;;13.50;1.00;;;;;;5071400;28;20454;-74
2022/11/09 03:51:42;;;;;;;65.07;9.00;;;13.50;1.00;;;;;;5072120;28;20443;-74
2022/11/09 03:54:09;;;;;;;63.87;9.07;;;13.50;1.00;;;;;;5071876;28;20451;-74
2022/11/09 03:56:36;;;;;;;63.97;8.67;;;13.40;1.00;;;;;;5072160;28;20455;-74
2022/11/09 03:59:03;;;;;;;67.87;9.87;;;13.30;1.00;;;;;;5071121;28;20979;-74
2022/11/09 04:01:30;;;;;;;64.77;8.87;;;13.20;1.00;;;;;;5071877;28;21020;-74
2022/11/09 04:03:58;;;;;;;65.67;10.07;;;13.20;1.00;;;;;;5071956;28;20451;-74
2022/11/09 04:06:24;;;;;;;64.57;9.87;;;13.10;1.00;;;;;;5071770;28;20452;-73
2022/11/09 04:08:52;;;;;;;66.33;9.67;;;13.00;1.00;;;;;;5070893;28;20478;-73
2022/11/09 04:11:19;;;;;;;63.20;8.80;;;12.90;1.00;;;;;;5071944;28;20450;-73
2022/11/09 04:13:46;;;;;;;67.87;9.63;;;12.70;1.00;;;;;;5071796;28;20960;-74
2022/11/09 04:16:13;;;;;;;63.67;9.57;;;12.60;1.00;;;;;;5071885;28;20546;-74
2022/11/09 04:18:39;;;;;;;66.67;9.80;;;12.30;1.00;;;;;;5070928;28;20481;-74
2022/11/09 04:21:08;;;;;;;66.73;10.20;;;12.20;1.00;;;;;;5071557;28;20484;-74
2022/11/09 04:23:35;;;;;;;66.47;9.03;;;12.20;1.00;;;;;;5071612;28;20467;-74
2022/11/09 04:26:01;;;;;;;63.80;9.57;;;12.20;1.00;;;;;;5071615;28;20900;-75
2022/11/09 04:28:28;;;;;;;67.80;10.27;;;12.10;1.00;;;;;;5071548;28;20474;-75
2022/11/09 04:30:59;;;;;;;64.80;10.20;;;12.00;1.00;;;;;;5071316;28;20511;-76
2022/11/09 04:33:26;;;;;;;65.20;9.33;;;11.70;1.00;;;;;;5071710;28;20542;-76
2022/11/09 04:35:53;;;;;;;66.20;9.40;;;11.50;1.00;;;;;;5073658;28;20465;-77
2022/11/09 04:38:21;;;;;;;69.40;10.50;;;11.40;1.00;;;;;;5075524;28;20487;-77
2022/11/09 04:40:47;;;;;;;62.97;9.47;;;11.20;1.00;;;;;;5076887;28;20493;-78
2022/11/09 04:43:15;;;;;;;67.40;9.80;;;11.30;1.00;;;;;;5078831;28;20515;-76
2022/11/09 04:45:43;;;;;;;64.70;9.87;;;11.50;1.00;;;;;;5079996;28;20451;-77
2022/11/09 04:48:11;;;;;;;65.40;9.20;;;11.70;1.00;;;;;;5079793;28;20990;-77
2022/11/09 04:50:38;;;;;;;70.10;11.73;;;11.70;1.00;;;;;;5080648;28;20444;-77
2022/11/09 04:53:10;;;;;;;66.90;9.80;;;11.90;1.00;;;;;;5082090;28;20530;-78
2022/11/09 04:55:39;;;;;;;65.37;9.67;;;11.90;1.00;;;;;;5078583;28;20447;-77
2022/11/09 04:58:06;;;;;;;65.20;10.33;;;11.70;1.00;;;;;;5078542;28;20467;-78
2022/11/09 05:00:34;;;;;;;65.70;10.50;;;11.50;1.00;;;;;;5075494;28;20489;-76
2022/11/09 05:03:01;;;;;;;64.93;9.30;;;11.70;1.00;;;;;;5075031;28;20605;-76
2022/11/09 05:05:28;;;;;;;66.20;10.53;;;11.90;1.00;;;;;;5075381;28;20449;-76
2022/11/09 05:07:55;;;;;;;65.97;10.27;;;11.80;1.00;;;;;;5075132;28;20525;-75
2022/11/09 05:10:22;;;;;;;67.73;10.10;;;11.90;1.00;;;;;;5074989;28;20453;-77
2022/11/09 05:12:50;;;;;;;69.27;11.00;;;12.10;1.00;;;;;;5075894;28;20442;-76
2022/11/09 05:15:17;;;;;;;70.07;10.30;;;11.90;1.00;;;;;;5075874;28;20775;-76
2022/11/09 05:17:44;;;;;;;65.90;11.23;;;12.00;1.00;;;;;;5075761;28;20489;-76
2022/11/09 05:20:12;;;;;;;67.23;11.87;;;12.00;1.00;;;;;;5074540;28;20462;-77
2022/11/09 05:25:26;;;;;;;66.97;11.10;;;11.80;1.00;;;;;;5075425;28;20958;-76
2022/11/09 05:27:54;;;;;;;66.83;10.90;;;11.90;1.00;;;;;;5075120;28;20471;-76
2022/11/09 05:30:21;;;;;;;65.70;10.40;;;12.10;1.00;;;;;;5074616;28;20530;-76
2022/11/09 05:32:48;;;;;;;65.60;11.03;;;12.00;1.00;;;;;;5074930;28;20462;-75
2022/11/09 05:35:15;;;;;;;69.50;11.40;;;12.00;1.00;;;;;;5074726;28;20451;-75
2022/11/09 05:37:42;;;;;;;67.70;10.90;;;11.80;1.00;;;;;;5074709;28;20821;-75
2022/11/09 05:40:10;;;;;;;70.03;10.80;;;11.70;1.00;;;;;;5073791;28;20457;-75
2022/11/09 05:42:39;;;;;;;67.20;10.50;;;11.90;1.00;;;;;;5074279;28;20493;-75
2022/11/09 05:45:09;;;;;;;69.70;11.00;;;12.10;1.00;;;;;;5074373;28;20447;-75
2022/11/09 05:47:38;;;;;;;67.90;10.00;;;12.30;1.00;;;;;;5073871;28;20471;-75
2022/11/09 05:50:07;;;;;;;66.20;10.70;;;12.50;1.00;;;;;;5073682;28;20473;-75
2022/11/09 05:52:33;;;;;;;72.40;10.60;;;12.70;1.00;;;;;;5074267;28;20823;-74
2022/11/09 05:55:00;;;;;;;65.43;10.50;;;12.40;1.00;;;;;;5074072;28;20447;-75
2022/11/09 05:57:27;;;;;;;65.57;9.83;;;12.50;1.00;;;;;;5074275;28;20562;-75
2022/11/09 05:59:54;;;;;;;67.00;10.80;;;12.80;1.00;;;;;;5073307;28;20972;-74
2022/11/09 06:02:23;;;;;;;67.40;10.83;;;12.90;1.00;;;;;;5073985;28;21015;-75
2022/11/09 06:04:50;;;;;;;72.37;11.30;;;13.00;1.00;;;;;;5073984;28;20447;-75
2022/11/09 06:07:17;;;;;;;69.93;10.33;;;13.00;1.00;;;;;;5073867;28;20995;-75
2022/11/09 06:09:43;;;;;;;64.30;9.10;;;13.00;1.00;;;;;;5073616;28;20458;-75
2022/11/09 06:12:10;;;;;;;66.37;10.70;;;12.90;1.00;;;;;;5074241;28;20455;-75
2022/11/09 06:14:37;;;;;;;69.70;11.27;;;13.00;1.00;;;;;;5074077;28;20960;-75
2022/11/09 06:17:04;;;;;;;66.00;11.57;;;13.10;1.00;;;;;;5074368;28;20465;-75
2022/11/09 06:19:32;;;;;;;64.90;10.40;;;13.20;1.00;;;;;;5073054;28;20843;-74
2022/11/09 06:21:59;;;;;;;68.87;10.43;;;13.10;1.00;;;;;;5073347;28;20481;-75
2022/11/09 06:24:25;;;;;;;66.20;11.37;;;13.20;1.00;;;;;;5073620;28;20453;-75
2022/11/09 06:26:52;;;;;;;68.30;10.20;;;13.20;1.00;;;;;;5073514;28;20944;-76
2022/11/09 06:29:19;;;;;;;64.33;9.20;;;13.20;1.00;;;;;;5072671;28;20451;-75
2022/11/09 06:31:47;;;;;;;67.20;10.83;;;13.20;1.00;;;;;;5073507;28;20443;-75
2022/11/09 06:34:14;;;;;;;67.63;10.37;;;13.20;1.00;;;;;;5073528;28;20458;-75
2022/11/09 06:36:42;;;;;;;66.23;9.73;;;13.20;1.00;;;;;;5073344;28;20442;-75
2022/11/09 06:39:09;;;;;;;65.67;9.70;;;13.10;1.00;;;;;;5072654;28;20475;-75
2022/11/09 06:41:36;;;;;;;66.10;9.80;;;13.10;1.00;;;;;;5073207;28;20488;-75
2022/11/09 06:44:04;;;;;;;65.33;10.07;;;13.10;1.00;;;;;;5073411;28;20465;-75
2022/11/09 06:46:31;;;;;;;64.93;9.83;;;13.10;1.00;;;;;;5073295;28;20455;-76
2022/11/09 06:48:58;;;;;;;66.73;9.97;;;13.10;1.00;;;;;;5072358;28;20474;-75
2022/11/09 06:51:25;;;;;;;63.20;8.83;;;13.20;1.00;;;;;;5072967;28;20477;-75
2022/11/09 06:53:53;;;;;;;67.73;9.90;;;13.30;1.00;;;;;;5073179;28;20447;-75
2022/11/09 06:56:20;;;;;;;66.63;10.37;;;13.30;1.00;;;;;;5072952;28;20447;-75
2022/11/09 06:58:47;;;;;;;65.87;11.00;;;13.30;1.00;;;;;;5071279;28;20467;-76
2022/11/09 07:01:16;;;;;;;67.63;11.30;;;13.30;1.00;;;;;;5072886;28;20498;-75
2022/11/09 07:03:43;;;;;;;66.33;9.83;;;13.20;1.00;;;;;;5072673;28;20451;-76
2022/11/09 07:06:12;;;;;;;72.50;10.13;;;13.20;1.00;;;;;;5073068;28;20479;-75
2022/11/09 07:08:39;;;;;;;69.40;10.80;;;13.30;1.00;;;;;;5071864;28;20468;-75
2022/11/09 07:11:10;;;;;;;67.47;11.30;;;13.40;1.00;;;;;;5072883;28;20450;-75
2022/11/09 07:13:37;;;;;;;70.70;10.50;;;13.40;1.00;;;;;;5072906;28;20443;-75
2022/11/09 07:16:04;;;;;;;68.67;11.03;;;13.50;1.00;;;;;;5073033;28;20447;-76
2022/11/09 07:18:31;;;;;;;65.60;10.80;;;13.50;1.00;;;;;;5071889;28;20477;-74
2022/11/09 07:20:58;;;;;;;70.50;12.70;;;13.60;1.00;;;;;;5072636;28;20454;-75
2022/11/09 07:23:25;;;;;;;68.20;12.40;;;13.70;1.00;;;;;;5072447;28;20462;-76
2022/11/09 07:25:53;;;;;;;67.30;11.83;;;13.70;1.00;;;;;;5072348;28;20955;-75
2022/11/09 07:28:21;;;;;;;69.70;12.23;;;13.70;1.00;;;;;;5072256;28;21112;-76
2022/11/09 07:30:50;;;;;;;66.17;11.70;;;13.30;1.00;;;;;;5071661;28;20483;-76
2022/11/09 07:33:18;;;;;;;67.43;10.03;;;12.20;1.00;;;;;;5072282;28;20456;-74
2022/11/09 07:35:45;;;;;;;65.47;10.57;;;11.80;1.00;;;;;;5072173;28;20452;-74
2022/11/09 07:38:12;;;;;;;67.67;10.90;;;11.80;1.00;;;;;;5072152;28;20472;-74
2022/11/09 07:40:39;;;;;;;64.83;10.47;;;12.10;1.00;;;;;;5071650;28;20460;-74
2022/11/09 07:43:07;;;;;;;69.87;12.00;;;12.50;1.00;;;;;;5072590;28;20487;-74
2022/11/09 07:45:35;;;;;;;86.17;24.80;;;13.10;1.00;;;;;;5072163;28;20460;-75
2022/11/09 07:48:04;;;;;;;69.47;12.20;;;13.20;1.00;;;;;;5072212;28;20846;-75
2022/11/09 07:50:33;;;;;;;68.53;13.80;;;12.90;1.00;;;;;;5071599;28;20478;-74
2022/11/09 07:53:01;;;;;;;69.97;12.60;;;13.10;1.00;;;;;;5072484;28;20447;-75
2022/11/09 07:55:29;;;;;;;67.47;11.07;;;13.40;1.00;;;;;;5072322;28;20451;-75
2022/11/09 07:57:57;;;;;;;65.67;10.20;;;13.40;1.00;;;;;;5072034;28;20546;-73
2022/11/09 08:00:25;;;;;;;65.60;11.87;;;13.40;1.00;;;;;;5071543;28;20451;-73
2022/11/09 08:02:53;;;;;;;66.87;10.23;;;13.50;1.00;;;;;;5071786;28;20485;-73
2022/11/09 08:05:20;;;;;;;63.27;10.77;;;13.70;1.00;;;;;;5071937;28;20451;-73
2022/11/09 08:07:47;;;;;;;64.90;11.10;;;13.90;1.00;;;;;;5071763;28;20482;-74
2022/11/09 08:10:15;;;;;;;68.23;11.93;;;13.90;1.00;;;;;;5070950;28;20487;-74
2022/11/09 08:12:41;;;;;;;67.10;10.77;;;14.00;1.00;;;;;;5071731;28;20439;-74
2022/11/09 08:15:09;;;;;;;66.40;10.87;;;14.10;1.00;;;;;;5071747;28;20451;-74
2022/11/09 08:17:36;;;;;;;67.30;11.03;;;14.20;1.00;;;;;;5071660;28;21017;-73
2022/11/09 08:20:05;;;;;;;67.70;11.27;;;14.00;1.00;;;;;;5071030;28;20456;-74
2022/11/09 08:22:32;;;;;;;68.10;10.43;;;13.50;1.00;;;;;;5071515;28;20515;-74
2022/11/09 08:24:58;;;;;;;71.17;12.20;;;13.50;1.00;;;;;;5071559;28;20455;-74
2022/11/09 08:27:25;;;;;;;70.30;13.17;;;13.50;1.00;;;;;;5071857;28;20477;-74
2022/11/09 08:29:52;;;;;;;71.50;12.70;;;13.60;1.00;;;;;;5071059;28;20870;-74
2022/11/09 08:32:19;;;;;;;73.03;12.53;;;13.20;1.00;;;;;;5071720;28;20796;-74
2022/11/09 08:34:47;;;;;;;68.80;12.70;;;13.00;1.00;;;;;;5071631;28;20829;-74
2022/11/09 08:37:16;;;;;;;69.10;12.90;;;12.60;1.00;;;;;;5071523;28;20471;-74
2022/11/09 08:39:43;;;;;;;74.73;14.30;;;12.60;1.00;;;;;;5070635;28;20804;-74
2022/11/09 08:42:09;;;;;;;68.97;13.03;;;12.80;1.00;;;;;;5071655;28;20491;-74
2022/11/09 08:44:36;;;;;;;70.33;13.93;;;13.00;1.00;;;;;;5066850;28;20460;-75
2022/11/09 08:47:03;;;;;;;70.33;12.07;;;13.20;1.00;;;;;;5071747;28;20458;-74
2022/11/09 08:49:31;;;;;;;69.20;13.20;;;13.20;1.00;;;;;;5069996;28;20462;-74
2022/11/09 08:51:58;;;;;;;70.00;13.13;;;13.20;1.00;;;;;;5071010;28;20494;-74
2022/11/09 08:54:26;;;;;;;69.77;13.07;;;12.90;1.00;;;;;;5072251;28;20467;-75
2022/11/09 08:56:55;;;;;;;67.90;11.20;;;13.00;1.00;;;;;;5071224;28;20454;-74
2022/11/09 08:59:22;;;;;;;66.40;10.40;;;13.00;1.00;;;;;;5070560;28;20451;-74
2022/11/09 09:01:49;;;;;;;69.70;11.50;;;12.90;1.00;;;;;;5071228;28;20487;-73
2022/11/09 09:04:16;;;;;;;72.67;10.63;;;13.20;1.00;;;;;;5071114;28;20447;-75
2022/11/09 09:06:42;;;;;;;64.43;9.80;;;13.60;1.00;;;;;;5071096;28;20447;-74
2022/11/09 09:09:10;;;;;;;65.20;8.20;;;13.80;1.00;;;;;;5069497;28;20472;-75
2022/11/09 09:11:38;;;;;;;61.10;5.90;;;13.70;1.00;;;;;;5071515;28;20447;-75
2022/11/09 09:14:04;;;;;;;60.43;6.07;;;13.60;1.00;;;;;;5067740;28;20957;-76
2022/11/09 09:16:31;;;;;;;61.87;6.13;;;13.40;1.00;;;;;;5071315;28;20448;-75
2022/11/09 09:18:58;;;;;;;63.43;6.03;;;13.80;1.00;;;;;;5070409;28;20979;-76
2022/11/09 09:21:25;;;;;;;60.87;6.40;;;13.90;1.00;;;;;;5072271;28;20451;-76
2022/11/09 09:23:52;;;;;;;61.53;5.90;;;14.00;1.00;;;;;;5074611;28;20469;-76
2022/11/09 09:26:19;;;;;;;63.20;6.27;;;14.10;1.00;;;;;;5074259;28;20470;-76
2022/11/09 09:28:47;;;;;;;62.40;6.33;;;14.10;1.00;;;;;;5074132;28;20471;-76
2022/11/09 09:31:14;;;;;;;61.63;5.57;;;14.30;1.00;;;;;;5074606;28;20503;-76
2022/11/09 09:33:40;;;;;;;60.47;5.40;;;14.10;1.00;;;;;;5074627;28;21003;-76
2022/11/09 09:36:09;;;;;;;60.50;6.23;;;14.20;1.00;;;;;;5075061;28;20458;-76
2022/11/09 09:38:36;;;;;;;62.17;6.20;;;14.20;1.00;;;;;;5075152;28;20478;-77
2022/11/09 09:41:05;;;;;;;61.03;6.07;;;14.00;1.00;;;;;;5076970;28;20451;-77
2022/11/09 09:43:37;;;;;;;63.17;5.93;;;14.10;1.00;;;;;;5076987;28;20577;-77
2022/11/09 09:46:13;;;;;;;60.20;5.03;;;14.20;1.00;;;;;;5064135;28;20448;-77
2022/11/09 09:48:45;;;;;;;60.90;5.60;;;13.90;1.00;;;;;;5058533;28;20476;-78
2022/11/09 09:51:19;;;;;;;62.47;5.30;;;13.70;1.00;;;;;;5059090;28;20448;-78
2022/11/09 09:53:50;;;;;;;63.10;5.00;;;13.80;1.00;;;;;;5059207;28;20558;-79
2022/11/09 09:56:21;;;;;;;60.20;4.80;;;13.80;1.00;;;;;;5058460;28;20475;-79
2022/11/09 09:58:54;;;;;;;59.50;5.10;;;13.90;1.00;;;;;;5056464;28;20505;-79
2022/11/09 10:01:27;;;;;;;61.10;6.30;;;14.00;1.00;;;;;;5059900;28;20452;-78
2022/11/09 10:03:54;;;;;;;60.67;4.73;;;13.90;1.00;;;;;;5063110;28;20492;-78
2022/11/09 10:06:38;;;;;;;60.60;5.10;;;13.90;1.00;;;;;;5071973;28;20949;-78
2022/11/09 10:09:15;;;;;;;60.93;4.57;;;14.00;1.00;;;;;;5073920;28;20464;-78
2022/11/09 10:11:50;;;;;;;60.10;5.00;;;14.00;1.00;;;;;;5069094;28;20541;-77
2022/11/09 10:14:33;;;;;;;60.47;5.60;;;14.00;1.00;;;;;;5066125;28;20512;-77
2022/11/09 10:17:11;;;;;;;64.73;5.47;;;14.30;1.00;;;;;;5057473;28;20455;-77
2022/11/09 10:19:50;;;;;;;59.67;4.47;;;14.30;1.00;;;;;;5074742;28;20459;-77
2022/11/09 10:22:23;;;;;;;59.57;4.57;;;14.50;1.00;;;;;;5073902;28;20525;-75
2022/11/09 10:24:58;;;;;;;60.40;5.17;;;14.40;1.00;;;;;;5073991;28;21022;-76
2022/11/09 10:27:34;;;;;;;59.83;4.60;;;14.60;1.00;;;;;;5073887;28;20471;-77
2022/11/09 10:30:02;;;;;;;60.33;4.67;;;15.20;1.00;;;;;;5072598;28;20451;-76
2022/11/09 10:32:32;;;;;;;60.50;5.40;;;15.30;1.00;;;;;;5073521;28;20879;-76
2022/11/09 10:35:13;;;;;;;62.00;6.27;;;15.40;1.00;;;;;;5073500;28;20947;-76
2022/11/09 10:37:42;;;;;;;64.27;7.07;;;15.60;1.00;;;;;;5074061;28;20983;-76
2022/11/09 10:40:17;;;;;;;59.60;5.00;;;15.80;1.00;;;;;;5072492;28;20560;-76
2022/11/09 10:42:47;;;;;;;62.30;5.10;;;15.80;1.00;;;;;;5072953;28;21049;-76
2022/11/09 10:45:25;;;;;;;60.30;5.70;;;16.10;1.00;;;;;;5073257;28;20455;-75
2022/11/09 10:47:53;;;;;;;61.10;5.70;;;16.60;1.00;;;;;;5072149;28;20485;-75
2022/11/09 10:50:27;;;;;;;61.30;5.47;;;16.90;1.00;;;;;;5069701;28;20452;-76
2022/11/09 10:53:08;;;;;;;59.27;4.23;;;17.20;1.00;;;;;;5072840;28;20819;-75
2022/11/09 10:55:36;;;;;;;59.00;4.30;;;17.20;1.00;;;;;;5073046;28;20473;-76
2022/11/09 10:58:20;;;;;;;60.07;4.50;;;17.30;1.00;;;;;;5072703;28;20478;-76
2022/11/09 11:01:04;;;;;;;59.17;3.87;;;17.20;1.00;;;;;;5072065;28;20451;-75
2022/11/09 11:03:35;;;;;;;59.13;3.90;;;17.30;1.00;;;;;;5072441;28;20483;-75
2022/11/09 11:06:04;;;;;;;59.47;4.00;;;17.20;1.00;;;;;;5072873;28;20448;-75
2022/11/09 11:08:35;;;;;;;60.73;4.10;;;17.00;1.00;;;;;;5072140;28;21009;-75
2022/11/09 11:11:15;;;;;;;60.03;3.93;;;16.90;1.00;;;;;;5072563;28;21001;-75
2022/11/09 11:13:42;;;;;;;59.87;3.93;;;16.90;1.00;;;;;;5072416;28;20458;-75
2022/11/09 11:16:23;;;;;;;60.20;4.50;;;17.30;1.00;;;;;;5072709;28;20473;-75
2022/11/09 11:18:52;;;;;;;59.13;3.97;;;17.50;1.00;;;;;;5072050;28;20573;-76
2022/11/09 11:21:20;;;;;;;59.10;4.40;;;17.60;1.00;;;;;;5056648;28;20458;-75
2022/11/09 11:24:13;;;;;;;58.83;3.70;;;17.60;1.00;;;;;;5052478;28;20490;-74
2022/11/09 11:26:52;;;;;;;58.60;3.37;;;17.60;1.00;;;;;;5052775;28;20466;-76
2022/11/09 11:29:32;;;;;;;58.60;3.37;;;17.70;1.00;;;;;;5051943;28;20456;-75
2022/11/09 11:32:00;;;;;;;58.60;3.63;;;17.80;1.00;;;;;;5052749;28;20488;-75
2022/11/09 11:34:28;;;;;;;59.63;3.40;;;17.90;1.00;;;;;;5052256;28;20452;-74
2022/11/09 11:37:11;;;;;;;58.33;3.33;;;18.00;1.00;;;;;;5052439;28;20456;-75
2022/11/09 11:39:49;;;;;;;58.17;3.50;;;18.30;1.00;;;;;;5052087;28;20448;-75
2022/11/09 11:42:36;;;;;;;59.70;3.50;;;18.30;1.00;;;;;;5052460;28;20487;-75
2022/11/09 11:45:15;;;;;;;58.97;4.13;;;18.50;1.00;;;;;;5051737;28;20466;-75
2022/11/09 11:47:51;;;;;;;58.70;3.50;;;18.40;1.00;;;;;;5052409;28;20468;-74
2022/11/09 11:50:32;;;;;;;59.37;4.17;;;18.30;1.00;;;;;;5051680;28;20456;-74
2022/11/09 11:53:19;;;;;;;58.60;3.63;;;18.30;1.00;;;;;;5066700;28;20443;-75
2022/11/09 11:56:17;;;;;;;59.87;3.70;;;18.10;1.00;;;;;;5072148;28;20443;-75
2022/11/09 11:59:16;;;;;;;59.17;4.20;;;18.30;1.00;;;;;;5071462;28;20547;-75
2022/11/09 12:01:55;;;;;;;59.00;3.70;;;18.40;1.00;;;;;;5069638;28;20457;-75
2022/11/09 12:04:40;;;;;;;61.30;4.30;;;18.40;1.00;;;;;;5072472;28;20498;-74
2022/11/09 12:07:20;;;;;;;59.00;4.20;;;18.30;1.00;;;;;;5071789;28;20457;-75
2022/11/09 12:10:15;;;;;;;58.97;4.03;;;18.30;1.00;;;;;;5070937;28;20456;-75
2022/11/09 12:12:53;;;;;;;61.90;4.13;;;18.30;1.00;;;;;;5066539;28;20603;-76
2022/11/09 12:15:28;;;;;;;59.60;4.20;;;17.80;1.00;;;;;;5071558;28;20948;-75
2022/11/09 12:18:05;;;;;;;60.13;4.50;;;18.00;1.00;;;;;;5071543;28;20553;-75
2022/11/09 12:20:39;;;;;;;60.60;4.60;;;18.00;1.00;;;;;;5070597;28;20482;-74
2022/11/09 12:23:21;;;;;;;59.40;4.10;;;18.00;1.00;;;;;;5060347;28;21020;-75
2022/11/09 12:25:58;;;;;;;59.33;4.10;;;18.10;1.00;;;;;;5051639;28;20459;-75
2022/11/09 12:28:43;;;;;;;62.20;4.43;;;17.80;1.00;;;;;;5051221;28;21014;-75
2022/11/09 12:31:20;;;;;;;59.70;4.43;;;17.70;1.00;;;;;;5051350;28;20992;-75
2022/11/09 12:33:52;;;;;;;60.10;4.50;;;18.00;1.00;;;;;;5051437;28;20835;-76
2022/11/09 12:36:23;;;;;;;59.50;4.40;;;18.20;1.00;;;;;;5051780;28;20453;-76
2022/11/09 12:39:00;;;;;;;59.47;4.40;;;18.30;1.00;;;;;;5050479;28;20840;-75
2022/11/09 12:41:33;;;;;;;60.43;5.30;;;18.10;1.00;;;;;;5051131;28;20834;-75
2022/11/09 12:44:06;;;;;;;60.27;5.00;;;18.30;1.00;;;;;;5051223;28;20484;-75
2022/11/09 12:46:38;;;;;;;59.77;4.80;;;18.40;1.00;;;;;;5051444;28;20464;-75
2022/11/09 12:49:06;;;;;;;65.20;5.30;;;18.40;1.00;;;;;;5050484;28;20555;-76
2022/11/09 12:51:34;;;;;;;60.80;5.83;;;18.10;1.00;;;;;;5051143;28;20539;-75
2022/11/09 12:54:10;;;;;;;72.30;5.17;;;18.00;1.00;;;;;;5049135;28;20454;-76
2022/11/09 12:56:43;;;;;;;60.80;4.90;;;18.10;1.00;;;;;;5052839;28;20533;-75
2022/11/09 12:59:34;;;;;;;62.10;5.60;;;18.40;1.00;;;;;;5054334;28;21091;-76
2022/11/09 13:02:03;;;;;;;60.17;5.70;;;18.70;1.00;;;;;;5055260;28;20877;-76